Time;durP1;ratioP1;P1;durP2;ratioP2;P2;SDS_P1;SDS_P2;PMS_P1;PMS_P2;Temp;Humidity;BMP_temperature;BMP_pressure;BME280_temperature;BME280_humidity;BME280_pressure;Samples;Min_cycle;Max_cycle;Signal;HPM_P1;HPM_P2
2022/09/07 00:02:22;;;;;;;9.50;6.70;;;;;;;8.87;68.26;100497.50;1733284;82;21602;-73
2022/09/07 00:04:49;;;;;;;20.17;14.95;;;;;;;8.88;68.72;100500.47;1733970;82;21149;-70
2022/09/07 00:07:16;;;;;;;21.30;13.90;;;;;;;8.93;69.91;100498.47;1730058;82;21593;-74
2022/09/07 00:09:44;;;;;;;23.92;18.30;;;;;;;9.05;70.32;100500.23;1726743;81;20982;-72
2022/09/07 00:12:11;;;;;;;25.35;17.57;;;;;;;9.19;70.61;100504.44;1730254;81;22394;-76
2022/09/07 00:14:38;;;;;;;29.85;16.12;;;;;;;9.35;70.58;100503.02;1731918;82;20962;-76
2022/09/07 00:17:05;;;;;;;28.95;17.87;;;;;;;9.51;70.18;100500.29;1733591;81;22452;-79
2022/09/07 00:19:34;;;;;;;29.10;19.30;;;;;;;9.70;69.57;100503.28;1737253;81;20974;-83
2022/09/07 00:22:01;;;;;;;12.03;8.40;;;;;;;9.86;68.88;100501.86;1739975;81;21106;-79
2022/09/07 00:24:27;;;;;;;23.50;15.23;;;;;;;9.95;67.58;100501.85;1737160;81;21481;-78
2022/09/07 00:26:55;;;;;;;23.70;17.32;;;;;;;10.01;67.16;100496.41;1733254;82;20988;-74
2022/09/07 00:29:22;;;;;;;26.60;17.40;;;;;;;10.09;66.63;100496.60;1739157;81;21118;-77
2022/09/07 00:31:49;;;;;;;19.70;15.68;;;;;;;10.18;66.04;100495.27;1733157;82;20931;-73
2022/09/07 00:34:16;;;;;;;14.80;11.20;;;;;;;10.26;65.40;100496.31;1733179;82;21059;-75
2022/09/07 00:36:43;;;;;;;23.00;16.65;;;;;;;10.34;64.75;100495.16;1732885;81;21042;-74
2022/09/07 00:39:10;;;;;;;27.07;18.00;;;;;;;10.37;63.96;100494.70;1735052;81;21062;-84
2022/09/07 00:41:37;;;;;;;23.32;16.67;;;;;;;10.40;63.34;100488.88;1732549;82;21105;-78
2022/09/07 00:44:59;;;;;;;27.52;18.45;;;;;;;10.38;63.30;100495.82;1732131;82;21688;-76
2022/09/07 00:47:50;;;;;;;15.53;11.15;;;;;;;10.35;63.06;100488.22;1731878;82;21494;-81
2022/09/07 00:50:45;;;;;;;15.45;11.68;;;;;;;10.27;63.33;100489.05;1742042;81;20986;-83
2022/09/07 00:53:23;;;;;;;27.02;17.67;;;;;;;10.03;64.25;100488.09;1710050;82;21029;-79
2022/09/07 00:55:51;;;;;;;23.40;17.70;;;;;;;9.89;64.84;100487.45;1729929;82;21115;-75
2022/09/07 00:58:20;;;;;;;24.07;17.80;;;;;;;9.87;65.70;100486.05;1707725;82;20982;-82
2022/09/07 01:00:51;;;;;;;27.10;18.50;;;;;;;9.93;66.39;100483.77;1736675;81;21626;-84
2022/09/07 01:03:28;;;;;;;27.40;19.75;;;;;;;9.99;66.83;100483.70;1732337;82;21007;-77
2022/09/07 01:06:21;;;;;;;28.25;21.70;;;;;;;10.02;67.12;100477.07;1735749;81;21536;-77
2022/09/07 01:08:49;;;;;;;;;;;;;;;10.07;67.45;100478.56;1730594;81;21638;-76
2022/09/07 01:11:18;;;;;;;25.97;19.90;;;;;;;10.13;67.60;100471.42;1734385;81;20129;-78
2022/09/07 01:13:45;;;;;;;27.40;20.90;;;;;;;10.15;67.50;100472.85;1738270;81;21014;-78
2022/09/07 01:16:32;;;;;;;27.87;21.57;;;;;;;10.19;67.49;100474.59;1731023;82;21055;-79
2022/09/07 01:19:55;;;;;;;26.20;19.15;;;;;;;10.21;67.66;100474.67;1735927;81;21011;-80
2022/09/07 01:22:36;;;;;;;;;;;;;;;10.21;67.40;100472.50;1734962;82;20943;-75
2022/09/07 01:25:37;;;;;;;24.72;16.17;;;;;;;10.04;66.59;100465.55;1731454;81;20356;-75
2022/09/07 01:28:20;;;;;;;23.35;14.25;;;;;;;9.96;67.59;100473.42;1703146;83;21086;-75
2022/09/07 01:31:25;;;;;;;26.42;16.77;;;;;;;9.97;67.50;100466.17;1685210;83;21492;-75
2022/09/07 01:34:15;;;;;;;25.32;16.87;;;;;;;9.99;67.99;100468.09;1692194;82;21066;-70
2022/09/07 01:37:22;;;;;;;29.85;18.10;;;;;;;10.02;68.27;100463.08;1739487;82;21144;-69
2022/09/07 01:40:01;;;;;;;25.40;18.32;;;;;;;10.05;68.26;100463.16;1724878;81;21504;-69
2022/09/07 01:42:31;;;;;;;23.10;17.17;;;;;;;10.07;68.40;100460.53;1748003;80;20900;-70
2022/09/07 01:45:03;;;;;;;27.52;19.20;;;;;;;10.09;68.79;100456.28;1721935;82;21070;-70
2022/09/07 01:47:44;;;;;;;28.02;20.12;;;;;;;10.12;68.88;100453.13;1758835;80;21792;-69
2022/09/07 01:50:48;;;;;;;31.27;21.42;;;;;;;10.13;68.29;100453.43;1760897;80;21136;-70
2022/09/07 01:53:23;;;;;;;32.88;22.32;;;;;;;10.15;67.49;100446.49;1757431;81;21590;-69
2022/09/07 01:56:00;;;;;;;43.92;24.92;;;;;;;10.14;66.13;100451.05;1735238;82;21039;-69
2022/09/07 01:58:31;;;;;;;39.88;25.62;;;;;;;10.14;65.33;100452.91;1756363;80;21552;-70
2022/09/07 02:01:17;;;;;;;38.83;25.90;;;;;;;10.16;64.72;100446.83;1760703;80;20979;-70
2022/09/07 02:04:02;;;;;;;31.70;23.67;;;;;;;10.17;64.46;100440.41;1761049;80;21225;-69
2022/09/07 02:06:43;;;;;;;40.38;24.82;;;;;;;10.18;64.09;100436.65;1765129;81;21023;-70
2022/09/07 02:09:21;;;;;;;35.45;24.57;;;;;;;10.19;63.72;100442.33;1738527;81;21073;-69
2022/09/07 02:11:49;;;;;;;39.13;24.25;;;;;;;10.19;63.29;100440.46;1717675;82;21018;-69
2022/09/07 02:14:23;;;;;;;48.63;30.72;;;;;;;10.21;63.11;100441.59;1754993;81;21552;-69
2022/09/07 02:16:58;;;;;;;35.55;23.65;;;;;;;10.22;63.09;100436.48;1745233;81;21204;-69
2022/09/07 02:19:27;;;;;;;33.28;24.00;;;;;;;10.22;63.07;100440.52;1759156;80;20907;-69
2022/09/07 02:21:59;;;;;;;40.98;25.50;;;;;;;10.21;62.96;100436.21;1739282;81;20952;-69
2022/09/07 02:24:34;;;;;;;40.67;27.22;;;;;;;10.21;62.71;100437.03;1750665;81;21579;-69
2022/09/07 02:27:08;;;;;;;36.77;25.37;;;;;;;10.21;62.74;100435.69;1724022;81;21006;-70
2022/09/07 02:29:36;;;;;;;33.20;23.25;;;;;;;10.20;62.56;100434.05;1765029;80;21164;-70
2022/09/07 02:32:04;;;;;;;38.83;24.80;;;;;;;10.20;62.37;100436.73;1758602;81;20984;-70
2022/09/07 02:34:31;;;;;;;32.93;24.30;;;;;;;10.19;62.11;100435.09;1753210;80;20963;-70
2022/09/07 02:36:58;;;;;;;38.23;24.77;;;;;;;10.18;61.99;100429.92;1767797;80;20987;-69
2022/09/07 02:39:24;;;;;;;38.00;24.02;;;;;;;10.18;62.14;100429.92;1683727;81;21032;-69
2022/09/07 02:41:51;;;;;;;37.70;25.02;;;;;;;10.17;62.29;100431.80;1754708;80;21113;-71
2022/09/07 02:44:26;;;;;;;40.90;25.25;;;;;;;10.17;62.44;100430.45;1731064;82;20927;-70
2022/09/07 02:47:14;;;;;;;34.27;23.45;;;;;;;10.17;62.60;100431.00;1747387;80;21008;-70
2022/09/07 02:50:29;;;;;;;35.13;24.98;;;;;;;10.15;62.57;100429.84;1734833;81;21071;-70
2022/09/07 02:53:05;;;;;;;37.42;24.05;;;;;;;10.14;62.58;100437.61;1756238;80;21008;-69
2022/09/07 02:55:41;;;;;;;36.83;25.32;;;;;;;10.12;62.52;100434.86;1749215;80;21086;-70
2022/09/07 02:58:41;;;;;;;40.10;26.42;;;;;;;10.08;62.47;100435.30;1746820;80;21015;-70
2022/09/07 03:01:39;;;;;;;37.03;25.30;;;;;;;10.06;62.33;100435.25;1666592;81;21031;-68
2022/09/07 03:04:20;;;;;;;37.63;25.45;;;;;;;10.05;62.00;100437.11;1754290;81;21540;-69
2022/09/07 03:07:09;;;;;;;33.65;23.47;;;;;;;10.04;61.89;100434.64;1755394;80;22162;-69
2022/09/07 03:09:39;;;;;;;34.40;23.12;;;;;;;10.04;61.91;100433.30;1728916;81;22965;-69
2022/09/07 03:12:07;;;;;;;32.90;22.22;;;;;;;10.02;61.94;100434.86;1753359;81;21035;-70
2022/09/07 03:14:35;;;;;;;40.80;24.77;;;;;;;10.01;61.86;100434.59;1759053;80;21524;-70
2022/09/07 03:17:01;;;;;;;28.40;20.48;;;;;;;9.99;61.92;100426.45;1733340;80;21098;-70
2022/09/07 03:19:28;;;;;;;32.78;21.50;;;;;;;9.99;61.98;100430.48;1756578;80;21023;-70
2022/09/07 03:21:55;;;;;;;29.95;21.65;;;;;;;9.98;62.01;100434.20;1753532;81;22288;-72
2022/09/07 03:24:22;;;;;;;32.50;21.42;;;;;;;9.95;62.14;100426.09;1759803;80;21043;-69
2022/09/07 03:26:50;;;;;;;31.82;21.00;;;;;;;9.94;62.15;100434.37;1754234;81;20928;-69
2022/09/07 03:29:18;;;;;;;30.45;20.50;;;;;;;9.91;62.18;100432.97;1751713;80;21426;-69
2022/09/07 03:31:45;;;;;;;32.60;20.17;;;;;;;9.90;62.20;100427.29;1754799;80;21134;-70
2022/09/07 03:34:12;;;;;;;32.55;20.25;;;;;;;9.89;62.21;100432.36;1754106;81;21022;-68
2022/09/07 03:36:38;;;;;;;34.03;22.15;;;;;;;9.89;62.25;100427.51;1754112;81;21036;-68
2022/09/07 03:39:05;;;;;;;31.12;21.60;;;;;;;9.87;62.40;100420.22;1754961;80;21018;-69
2022/09/07 03:41:34;;;;;;;29.60;19.45;;;;;;;9.87;62.64;100425.59;1751836;80;20891;-72
2022/09/07 03:44:05;;;;;;;29.37;20.35;;;;;;;9.86;62.80;100423.42;1738513;80;21033;-71
2022/09/07 03:46:33;;;;;;;32.67;20.68;;;;;;;9.86;62.99;100422.60;1715491;82;22102;-71
2022/09/07 03:49:00;;;;;;;29.82;19.87;;;;;;;9.85;63.18;100419.61;1746357;80;21100;-68
2022/09/07 03:51:27;;;;;;;29.23;19.52;;;;;;;9.86;63.38;100426.11;1742878;82;20987;-69
2022/09/07 03:53:54;;;;;;;20.97;16.15;;;;;;;9.86;63.57;100428.80;1715488;82;20938;-68
2022/09/07 03:56:23;;;;;;;22.52;14.90;;;;;;;9.86;63.49;100426.63;1743383;80;21124;-69
2022/09/07 03:58:50;;;;;;;19.90;13.95;;;;;;;9.87;63.26;100430.44;1732032;81;21221;-69
2022/09/07 04:01:22;;;;;;;22.50;14.83;;;;;;;9.88;63.51;100429.38;1742594;82;21045;-70
2022/09/07 04:03:49;;;;;;;23.50;15.25;;;;;;;9.89;63.35;100434.22;1741545;82;21054;-70
2022/09/07 04:06:16;;;;;;;17.98;12.78;;;;;;;9.90;63.20;100434.02;1741071;80;21082;-68
2022/09/07 04:08:43;;;;;;;17.55;13.53;;;;;;;9.90;62.88;100430.50;1747222;80;21037;-69
2022/09/07 04:11:16;;;;;;;18.50;12.50;;;;;;;9.92;62.80;100432.45;1722693;80;21688;-70
2022/09/07 04:13:44;;;;;;;16.93;11.25;;;;;;;9.93;62.59;100438.09;1739161;82;20990;-70
2022/09/07 04:16:16;;;;;;;15.13;11.05;;;;;;;9.94;62.09;100433.02;1720910;80;21025;-70
2022/09/07 04:18:43;;;;;;;17.42;12.03;;;;;;;9.96;62.30;100443.03;1702740;82;21120;-71
2022/09/07 04:21:10;;;;;;;19.70;13.05;;;;;;;9.97;62.44;100434.76;1723888;80;21160;-71
2022/09/07 04:23:40;;;;;;;18.07;13.15;;;;;;;9.99;62.54;100439.36;1734467;82;21257;-70
2022/09/07 04:26:14;;;;;;;18.20;13.80;;;;;;;10.00;62.56;100442.35;1745865;80;21546;-70
2022/09/07 04:28:40;;;;;;;;;;;;;;;10.00;62.44;100442.35;1746426;80;21069;-71
2022/09/07 04:31:07;;;;;;;16.93;9.95;;;;;;;10.00;62.19;100441.53;1746308;80;20106;-71
2022/09/07 04:33:35;;;;;;;15.75;11.28;;;;;;;10.00;62.16;100441.00;1742716;80;21128;-70
2022/09/07 04:36:02;;;;;;;17.15;11.05;;;;;;;10.01;62.05;100439.14;1719467;82;21708;-71
2022/09/07 04:38:29;;;;;;;23.30;12.70;;;;;;;10.01;61.96;100444.52;1742427;81;21074;-72
2022/09/07 04:41:08;;;;;;;13.62;10.18;;;;;;;10.02;61.99;100442.13;1741449;81;20950;-71
2022/09/07 04:43:36;;;;;;;17.45;11.00;;;;;;;10.00;62.01;100443.70;1714987;81;21042;-71
2022/09/07 04:46:04;;;;;;;17.05;10.40;;;;;;;10.02;62.02;100443.48;1743092;82;21073;-71
2022/09/07 04:48:31;;;;;;;18.35;12.07;;;;;;;10.02;62.17;100441.58;1743108;80;21783;-71
2022/09/07 04:51:06;;;;;;;17.40;11.45;;;;;;;10.02;62.25;100446.16;1737005;82;21009;-72
2022/09/07 04:53:34;;;;;;;13.50;9.85;;;;;;;10.02;62.38;100452.33;1741865;80;21085;-69
2022/09/07 04:56:01;;;;;;;14.65;11.28;;;;;;;10.03;62.35;100441.06;1742802;80;21077;-69
2022/09/07 04:58:29;;;;;;;12.47;10.90;;;;;;;10.04;62.49;100448.91;1742819;80;21320;-71
2022/09/07 05:01:01;;;;;;;17.40;11.18;;;;;;;10.03;62.62;100449.95;1742276;80;21055;-70
2022/09/07 05:03:29;;;;;;;13.65;11.43;;;;;;;10.05;62.73;100447.87;1741422;80;21026;-69
2022/09/07 05:05:58;;;;;;;16.00;10.23;;;;;;;10.05;62.86;100445.70;1743154;80;21093;-69
2022/09/07 05:08:25;;;;;;;18.02;11.45;;;;;;;10.05;62.81;100445.17;1742219;82;21013;-70
2022/09/07 05:10:53;;;;;;;12.68;11.10;;;;;;;10.05;62.86;100443.84;1728430;80;21101;-68
2022/09/07 05:13:20;;;;;;;18.17;11.40;;;;;;;10.05;63.07;100443.84;1744948;80;21850;-69
2022/09/07 05:15:48;;;;;;;17.82;12.90;;;;;;;10.07;63.08;100443.62;1749474;80;20918;-67
2022/09/07 05:18:15;;;;;;;16.87;11.50;;;;;;;10.10;63.41;100445.02;1744244;80;21495;-70
2022/09/07 05:20:42;;;;;;;14.95;11.05;;;;;;;10.12;63.55;100445.06;1742836;82;21026;-70
2022/09/07 05:23:09;;;;;;;15.65;10.65;;;;;;;10.15;63.53;100435.73;1744414;82;20991;-70
2022/09/07 05:25:42;;;;;;;15.30;10.25;;;;;;;10.18;63.45;100441.50;1744799;80;21119;-68
2022/09/07 05:28:10;;;;;;;18.17;11.25;;;;;;;10.20;63.33;100435.39;1744657;82;20899;-72
2022/09/07 05:30:38;;;;;;;17.80;11.12;;;;;;;10.24;63.48;100438.43;1741679;82;20964;-71
2022/09/07 05:33:07;;;;;;;14.47;10.48;;;;;;;10.28;63.43;100442.30;1744459;80;21046;-73
2022/09/07 05:35:34;;;;;;;12.95;9.45;;;;;;;10.32;63.27;100436.75;1742664;81;21655;-69
2022/09/07 05:38:01;;;;;;;12.28;9.28;;;;;;;10.34;63.16;100444.89;1742846;82;21243;-69
2022/09/07 05:40:31;;;;;;;14.18;11.45;;;;;;;10.37;62.97;100443.08;1743880;80;21115;-68
2022/09/07 05:42:58;;;;;;;14.80;9.98;;;;;;;10.40;62.92;100440.47;1742780;80;20994;-71
2022/09/07 05:45:25;;;;;;;19.10;8.78;;;;;;;10.44;62.81;100449.19;1732426;81;20970;-70
2022/09/07 05:47:54;;;;;;;15.15;8.68;;;;;;;10.47;62.47;100439.83;1744030;80;21025;-70
2022/09/07 05:50:23;;;;;;;12.60;9.38;;;;;;;10.52;62.27;100441.30;1741113;82;21301;-70
2022/09/07 05:52:49;;;;;;;13.95;8.78;;;;;;;10.57;62.16;100433.89;1742048;82;20958;-71
2022/09/07 05:55:16;;;;;;;9.20;7.90;;;;;;;10.63;61.80;100439.17;1743110;80;21077;-69
2022/09/07 05:57:43;;;;;;;12.13;6.70;;;;;;;10.67;60.89;100437.66;1743272;82;21077;-70
2022/09/07 06:00:13;;;;;;;8.00;6.65;;;;;;;10.72;60.68;100428.88;1739443;80;21011;-70
2022/09/07 06:02:40;;;;;;;12.15;7.37;;;;;;;10.78;60.61;100432.81;1747466;80;21937;-71
2022/09/07 06:05:09;;;;;;;14.03;7.37;;;;;;;10.85;60.56;100432.69;1740122;80;20950;-71
2022/09/07 06:07:41;;;;;;;10.58;6.58;;;;;;;10.92;60.48;100428.84;1716885;82;21079;-73
2022/09/07 06:10:08;;;;;;;14.30;6.28;;;;;;;11.00;60.43;100430.88;1742961;82;20982;-72
2022/09/07 06:12:36;;;;;;;7.87;4.95;;;;;;;11.06;59.84;100437.50;1716552;80;21092;-71
2022/09/07 06:15:04;;;;;;;7.22;5.60;;;;;;;11.14;58.97;100440.35;1742561;80;21243;-71
2022/09/07 06:17:32;;;;;;;11.03;5.95;;;;;;;11.22;58.83;100445.40;1743375;80;21915;-71
2022/09/07 06:19:59;;;;;;;8.15;5.67;;;;;;;11.28;58.38;100439.88;1742348;82;20919;-72
2022/09/07 06:22:26;;;;;;;9.35;5.03;;;;;;;11.36;58.17;100442.75;1741491;82;21074;-74
2022/09/07 06:24:53;;;;;;;8.93;5.10;;;;;;;11.44;57.71;100446.94;1745252;80;21130;-73
2022/09/07 06:27:20;;;;;;;8.38;5.53;;;;;;;11.49;57.33;100443.83;1715960;82;21110;-71
2022/09/07 06:29:47;;;;;;;9.78;5.42;;;;;;;11.58;56.91;100444.27;1742499;82;21060;-72
2022/09/07 06:32:14;;;;;;;6.37;5.05;;;;;;;11.65;56.43;100444.98;1742420;82;20977;-71
2022/09/07 06:34:41;;;;;;;5.05;4.55;;;;;;;11.73;56.19;100447.32;1754382;80;20959;-73
2022/09/07 06:37:07;;;;;;;6.47;5.47;;;;;;;11.79;55.30;100443.16;1742773;82;21042;-71
2022/09/07 06:39:35;;;;;;;5.95;4.70;;;;;;;11.90;55.10;100448.19;1768932;80;21128;-71
2022/09/07 06:42:05;;;;;;;7.92;5.53;;;;;;;12.00;54.80;100451.61;1746576;80;21644;-71
2022/09/07 06:44:31;;;;;;;9.10;5.42;;;;;;;12.08;54.42;100456.12;1764436;80;21047;-71
2022/09/07 06:46:58;;;;;;;8.05;5.30;;;;;;;12.17;54.36;100459.23;1768026;80;20978;-72
2022/09/07 06:49:25;;;;;;;8.13;4.65;;;;;;;12.26;54.21;100469.11;1761890;81;21007;-71
2022/09/07 06:51:52;;;;;;;6.53;4.37;;;;;;;12.32;53.40;100461.40;1761323;81;21037;-72
2022/09/07 06:54:19;;;;;;;6.90;4.08;;;;;;;12.39;53.66;100465.57;1764564;80;21137;-72
2022/09/07 06:56:46;;;;;;;5.22;3.40;;;;;;;12.48;52.89;100466.81;1760225;81;21528;-74
2022/09/07 06:59:12;;;;;;;4.45;3.30;;;;;;;12.55;51.95;100465.31;1760074;81;21801;-73
2022/09/07 07:01:39;;;;;;;5.33;3.33;;;;;;;12.59;51.90;100468.63;1732761;81;21568;-71
2022/09/07 07:04:06;;;;;;;4.25;3.47;;;;;;;12.63;51.20;100467.08;1754589;80;22955;-71
2022/09/07 07:06:37;;;;;;;4.33;3.52;;;;;;;12.67;51.05;100464.17;1759719;80;20989;-68
2022/09/07 07:09:06;;;;;;;3.42;3.00;;;;;;;12.73;51.14;100465.08;1756757;81;21014;-69
2022/09/07 07:11:35;;;;;;;7.40;3.80;;;;;;;12.79;50.39;100476.78;1754680;81;20966;-70
2022/09/07 07:14:02;;;;;;;7.05;3.40;;;;;;;12.85;50.17;100455.56;1740680;81;21009;-68
2022/09/07 07:16:29;;;;;;;3.27;2.85;;;;;;;12.89;49.90;100453.47;1740693;81;21146;-70
2022/09/07 07:18:56;;;;;;;6.35;3.20;;;;;;;12.96;49.82;100460.04;1740764;82;21005;-70
2022/09/07 07:21:24;;;;;;;3.25;2.95;;;;;;;13.04;49.83;100468.53;1741825;81;21542;-70
2022/09/07 07:23:52;;;;;;;2.83;2.62;;;;;;;13.11;49.45;100463.00;1759801;80;21010;-69
2022/09/07 07:26:22;;;;;;;4.12;3.08;;;;;;;13.19;49.13;100470.68;1738373;81;21074;-70
2022/09/07 07:28:50;;;;;;;4.15;2.60;;;;;;;13.28;48.44;100473.27;1750172;81;21134;-71
2022/09/07 07:31:18;;;;;;;8.58;2.98;;;;;;;13.36;48.19;100467.97;1746637;80;20950;-71
2022/09/07 07:33:47;;;;;;;8.03;2.42;;;;;;;13.44;47.62;100462.12;1739591;82;20997;-69
2022/09/07 07:36:20;;;;;;;2.17;2.02;;;;;;;13.50;47.15;100457.08;1770703;80;21030;-71
2022/09/07 07:38:50;;;;;;;2.42;2.22;;;;;;;13.57;46.79;100456.38;1736672;81;21054;-71
2022/09/07 07:41:19;;;;;;;1.98;1.87;;;;;;;13.63;46.54;100450.48;1793160;80;21746;-69
2022/09/07 07:43:47;;;;;;;6.05;2.30;;;;;;;13.69;45.72;100457.05;1765106;81;20990;-70
2022/09/07 07:46:15;;;;;;;2.35;1.98;;;;;;;13.74;45.15;100455.77;1763574;80;21007;-71
2022/09/07 07:48:42;;;;;;;3.60;2.00;;;;;;;13.81;45.09;100447.48;1733127;82;21056;-70
2022/09/07 07:51:10;;;;;;;7.45;2.50;;;;;;;13.86;45.07;100442.12;1733718;81;20932;-70
2022/09/07 07:53:40;;;;;;;3.05;2.08;;;;;;;13.91;44.91;100444.33;1733576;82;21141;-70
2022/09/07 07:56:10;;;;;;;4.80;2.45;;;;;;;13.98;44.00;100452.27;1769271;80;20968;-72
2022/09/07 07:58:37;;;;;;;2.42;2.22;;;;;;;14.03;43.56;100448.80;1763751;80;21002;-70
2022/09/07 08:01:10;;;;;;;3.17;2.33;;;;;;;14.06;43.71;100437.45;1765730;80;20987;-72
2022/09/07 08:03:39;;;;;;;2.62;1.55;;;;;;;14.10;43.34;100440.75;1763786;80;21050;-70
2022/09/07 08:06:12;;;;;;;2.17;1.70;;;;;;;14.17;42.41;100444.62;1733869;81;21021;-71
2022/09/07 08:08:39;;;;;;;2.20;2.02;;;;;;;14.22;42.79;100441.97;1756274;81;21383;-73
2022/09/07 08:11:09;;;;;;;3.62;1.85;;;;;;;14.30;42.97;100438.79;1760150;81;20987;-74
2022/09/07 08:13:39;;;;;;;4.65;2.60;;;;;;;14.40;42.56;100435.68;1738221;81;21045;-74
2022/09/07 08:16:06;;;;;;;2.75;2.05;;;;;;;14.53;42.31;100437.14;1731012;82;21046;-73
2022/09/07 08:18:34;;;;;;;2.22;2.02;;;;;;;14.62;41.28;100428.85;1760403;80;21265;-72
2022/09/07 08:21:03;;;;;;;6.40;1.50;;;;;;;14.73;41.02;100437.31;1749309;80;21010;-73
2022/09/07 08:23:30;;;;;;;2.08;1.70;;;;;;;14.78;39.96;100418.41;1728076;82;21524;-76
2022/09/07 08:25:59;;;;;;;1.75;1.65;;;;;;;14.86;39.80;100411.70;1733781;80;21105;-72
2022/09/07 08:28:28;;;;;;;2.98;1.10;;;;;;;14.91;38.90;100427.99;1744637;80;21546;-73
2022/09/07 08:30:55;;;;;;;2.83;1.45;;;;;;;14.95;39.23;100412.84;1742341;80;21566;-72
2022/09/07 08:33:21;;;;;;;1.50;1.40;;;;;;;14.96;39.15;100413.66;1741056;80;21022;-72
2022/09/07 08:36:01;;;;;;;3.30;1.40;;;;;;;15.00;38.36;100408.00;1736292;82;21054;-72
2022/09/07 08:38:29;;;;;;;6.80;2.00;;;;;;;15.02;38.09;100415.30;1715139;82;21546;-71
2022/09/07 08:40:56;;;;;;;6.22;1.72;;;;;;;15.05;38.62;100394.48;1740732;80;21104;-70
2022/09/07 08:43:47;;;;;;;1.80;1.70;;;;;;;15.11;39.00;100392.06;1743601;80;21310;-70
2022/09/07 08:46:41;;;;;;;2.50;1.70;;;;;;;15.18;38.81;100391.30;1748046;80;22131;-70
2022/09/07 08:49:18;;;;;;;7.33;1.65;;;;;;;15.25;38.66;100398.10;1737561;80;21511;-75
2022/09/07 08:51:56;;;;;;;4.65;1.87;;;;;;;15.30;38.33;100399.23;1741190;82;20927;-74
2022/09/07 08:54:22;;;;;;;2.50;1.50;;;;;;;15.33;38.12;100394.09;1742646;82;21042;-73
2022/09/07 08:56:52;;;;;;;5.08;1.67;;;;;;;15.34;38.08;100382.72;1742421;82;21589;-71
2022/09/07 08:59:25;;;;;;;2.85;1.55;;;;;;;15.35;38.23;100379.72;1742538;81;20950;-73
2022/09/07 09:01:54;;;;;;;3.20;1.67;;;;;;;15.42;38.06;100392.51;1742354;82;21046;-73
2022/09/07 09:04:24;;;;;;;6.92;1.72;;;;;;;15.49;38.02;100376.01;1753342;80;21080;-74
2022/09/07 09:07:06;;;;;;;7.30;2.37;;;;;;;15.57;38.24;100380.94;1730800;81;21070;-71
2022/09/07 09:09:48;;;;;;;7.12;1.80;;;;;;;15.67;38.49;100376.91;1742498;82;21156;-73
2022/09/07 09:12:51;;;;;;;6.78;3.08;;;;;;;15.79;37.87;100380.19;1741285;81;20955;-73
2022/09/07 09:15:29;;;;;;;5.83;2.75;;;;;;;15.84;37.59;100369.35;1721382;80;21468;-73
2022/09/07 09:18:22;;;;;;;5.10;3.58;;;;;;;15.90;37.71;100368.29;1724757;80;20989;-73
2022/09/07 09:20:53;;;;;;;4.57;2.27;;;;;;;15.98;37.67;100356.08;1750603;80;21522;-72
2022/09/07 09:23:32;;;;;;;4.42;2.47;;;;;;;16.08;37.80;100356.92;1716040;80;21763;-72
2022/09/07 09:26:17;;;;;;;2.25;2.05;;;;;;;16.20;37.62;100377.56;1739272;80;20969;-72
2022/09/07 09:28:46;;;;;;;3.62;3.02;;;;;;;16.22;37.12;100365.34;1652488;82;21077;-74
2022/09/07 09:31:21;;;;;;;3.72;2.25;;;;;;;16.21;37.08;100380.56;1741931;80;20988;-72
2022/09/07 09:34:10;;;;;;;5.35;2.95;;;;;;;16.10;37.02;100374.30;1740732;80;21046;-75
2022/09/07 09:36:45;;;;;;;3.62;1.95;;;;;;;15.97;37.24;100354.47;1727476;80;21961;-72
2022/09/07 09:39:35;;;;;;;2.42;2.00;;;;;;;15.87;37.36;100364.77;1731764;80;20977;-73
2022/09/07 09:42:22;;;;;;;4.97;2.10;;;;;;;15.86;37.53;100360.95;1743549;80;20954;-71
2022/09/07 09:44:49;;;;;;;5.50;2.08;;;;;;;15.83;37.54;100354.16;1746139;80;21050;-69
2022/09/07 09:47:34;;;;;;;3.12;2.00;;;;;;;15.84;37.56;100346.30;1746066;80;21120;-70
2022/09/07 09:50:08;;;;;;;4.25;2.22;;;;;;;15.86;37.78;100346.03;1753342;80;21099;-67
2022/09/07 09:52:35;;;;;;;3.95;1.92;;;;;;;15.85;37.65;100354.71;1749463;81;21002;-68
2022/09/07 09:55:05;;;;;;;3.25;1.85;;;;;;;15.82;37.43;100344.95;1761052;81;21066;-68
2022/09/07 09:57:51;;;;;;;7.10;1.98;;;;;;;15.79;37.34;100335.97;1759237;81;21023;-68
2022/09/07 10:00:22;;;;;;;2.50;1.90;;;;;;;15.81;37.49;100340.06;1760192;80;21060;-70
2022/09/07 10:03:08;;;;;;;2.45;2.20;;;;;;;15.88;37.50;100327.03;1769633;80;21377;-69
2022/09/07 10:05:40;;;;;;;3.55;1.72;;;;;;;15.96;37.59;100336.56;1737077;80;20935;-69
2022/09/07 10:08:27;;;;;;;2.80;2.25;;;;;;;16.03;37.57;100323.53;1756726;81;21034;-70
2022/09/07 10:11:08;;;;;;;4.85;2.98;;;;;;;16.12;37.57;100337.65;1738729;81;21090;-69
2022/09/07 10:13:40;;;;;;;4.83;2.30;;;;;;;16.22;37.29;100328.69;1734217;81;20986;-71
2022/09/07 10:16:08;;;;;;;5.35;2.58;;;;;;;16.31;37.06;100333.03;1753378;80;22143;-70
2022/09/07 10:18:40;;;;;;;3.67;2.62;;;;;;;16.41;36.87;100318.09;1721005;81;20986;-72
2022/09/07 10:21:13;;;;;;;2.83;1.47;;;;;;;16.52;36.44;100329.23;1679790;84;21018;-70
2022/09/07 10:23:39;;;;;;;5.15;1.75;;;;;;;16.52;35.92;100316.47;1745937;81;21089;-70
2022/09/07 10:26:29;;;;;;;5.87;2.25;;;;;;;16.56;36.02;100314.83;1746154;81;21022;-70
2022/09/07 10:29:13;;;;;;;5.28;1.90;;;;;;;16.67;36.19;100312.95;1750349;81;21199;-71
2022/09/07 10:32:06;;;;;;;7.55;1.60;;;;;;;16.89;36.10;100327.55;1722165;82;21082;-71
2022/09/07 10:35:14;;;;;;;3.95;2.08;;;;;;;17.06;35.70;100325.35;1665473;85;24305;-71
2022/09/07 10:37:52;;;;;;;3.87;1.95;;;;;;;17.20;35.12;100327.75;1687201;85;21083;-70
2022/09/07 10:40:34;;;;;;;2.10;1.90;;;;;;;17.29;34.75;100327.98;1714033;82;21768;-70
2022/09/07 10:43:12;;;;;;;2.85;2.22;;;;;;;17.32;34.71;100311.91;1733968;82;21149;-72
2022/09/07 10:46:05;;;;;;;3.90;2.65;;;;;;;17.37;34.77;100295.57;1746873;81;21515;-71
2022/09/07 10:49:19;;;;;;;5.72;2.22;;;;;;;17.55;34.73;100297.41;1748977;81;21017;-70
2022/09/07 10:52:16;;;;;;;3.72;2.98;;;;;;;17.77;34.12;100295.10;1705896;84;21137;-71
2022/09/07 10:55:05;;;;;;;7.30;3.22;;;;;;;17.77;34.28;100282.31;1731403;82;20959;-70
2022/09/07 10:57:59;;;;;;;3.77;2.35;;;;;;;17.77;34.47;100291.84;1704032;84;21171;-71
2022/09/07 11:00:25;;;;;;;3.67;2.75;;;;;;;17.89;34.41;100289.32;1704181;84;21168;-71
2022/09/07 11:03:37;;;;;;;4.70;3.02;;;;;;;17.99;34.44;100291.39;1754797;81;21006;-70
2022/09/07 11:06:32;;;;;;;4.00;2.12;;;;;;;18.09;34.43;100288.59;1765151;81;20936;-71
2022/09/07 11:09:34;;;;;;;5.58;2.58;;;;;;;17.99;33.45;100297.39;1766149;81;20992;-73
2022/09/07 11:12:21;;;;;;;3.85;3.27;;;;;;;17.93;33.47;100283.57;1748598;81;22137;-68
2022/09/07 11:14:55;;;;;;;4.25;2.98;;;;;;;17.93;33.97;100278.95;1764890;81;20888;-71
2022/09/07 11:17:25;;;;;;;4.53;3.25;;;;;;;17.93;34.02;100265.88;1765182;81;21019;-72
2022/09/07 11:20:09;;;;;;;3.47;2.98;;;;;;;17.88;33.62;100259.11;1764831;81;20929;-72
2022/09/07 11:22:45;;;;;;;4.47;2.95;;;;;;;17.82;33.59;100265.14;1760710;80;21010;-89
2022/09/07 11:25:26;;;;;;;3.95;2.10;;;;;;;17.85;34.19;100271.36;1748688;80;21553;-76
2022/09/07 11:28:14;;;;;;;4.58;2.95;;;;;;;17.99;34.16;100262.81;1714491;81;21059;-74
2022/09/07 11:30:52;;;;;;;2.83;2.40;;;;;;;18.17;33.80;100275.75;1758039;80;21027;-77
2022/09/07 11:33:34;;;;;;;3.90;3.45;;;;;;;18.32;33.42;100254.92;1751528;81;20942;-74
2022/09/07 11:36:08;;;;;;;2.77;2.08;;;;;;;18.42;33.31;100243.91;1747391;81;21023;-72
2022/09/07 11:38:42;;;;;;;3.52;2.55;;;;;;;18.53;33.00;100235.90;1763137;80;21118;-72
2022/09/07 11:41:18;;;;;;;4.40;2.33;;;;;;;18.57;32.53;100243.23;1731761;82;20966;-75
2022/09/07 11:44:23;;;;;;;3.00;2.27;;;;;;;18.62;32.64;100258.17;1712065;82;21542;-71
2022/09/07 11:46:52;;;;;;;5.30;1.80;;;;;;;18.68;32.32;100241.22;1734272;81;21006;-75
2022/09/07 11:49:22;;;;;;;3.20;1.95;;;;;;;18.75;32.27;100236.25;1733058;82;21124;-75
2022/09/07 11:52:00;;;;;;;12.80;2.17;;;;;;;18.78;31.92;100241.65;1734284;81;21774;-74